sensor_id;sensor_type;location;lat;lon;timestamp;temperature;humidity
5683;DHT22;2864;49.220;8.654;2023-06-26T00:02:18;18.30;93.00
5683;DHT22;2864;49.220;8.654;2023-06-26T00:04:43;18.20;93.40
5683;DHT22;2864;49.220;8.654;2023-06-26T00:07:09;18.20;93.80
5683;DHT22;2864;49.220;8.654;2023-06-26T00:09:35;18.10;93.80
5683;DHT22;2864;49.220;8.654;2023-06-26T00:12:01;18.10;94.20
5683;DHT22;2864;49.220;8.654;2023-06-26T00:14:27;18.10;94.30
5683;DHT22;2864;49.220;8.654;2023-06-26T00:16:53;18.30;94.60
5683;DHT22;2864;49.220;8.654;2023-06-26T00:19:18;18.10;94.60
5683;DHT22;2864;49.220;8.654;2023-06-26T00:21:44;18.00;94.80
5683;DHT22;2864;49.220;8.654;2023-06-26T00:24:16;18.00;95.00
5683;DHT22;2864;49.220;8.654;2023-06-26T00:26:42;18.10;95.30
5683;DHT22;2864;49.220;8.654;2023-06-26T00:29:08;18.00;95.50
5683;DHT22;2864;49.220;8.654;2023-06-26T00:31:33;18.00;95.60
5683;DHT22;2864;49.220;8.654;2023-06-26T00:34:00;17.90;95.60
5683;DHT22;2864;49.220;8.654;2023-06-26T00:36:26;18.00;95.80
5683;DHT22;2864;49.220;8.654;2023-06-26T00:38:52;17.90;95.90
5683;DHT22;2864;49.220;8.654;2023-06-26T00:41:18;18.00;96.00
5683;DHT22;2864;49.220;8.654;2023-06-26T00:43:44;17.90;96.20
5683;DHT22;2864;49.220;8.654;2023-06-26T00:46:12;18.10;96.30
5683;DHT22;2864;49.220;8.654;2023-06-26T00:48:39;18.30;95.30
5683;DHT22;2864;49.220;8.654;2023-06-26T00:51:04;18.30;95.50
5683;DHT22;2864;49.220;8.654;2023-06-26T00:53:31;18.50;94.80
5683;DHT22;2864;49.220;8.654;2023-06-26T00:55:56;18.40;94.60
5683;DHT22;2864;49.220;8.654;2023-06-26T00:58:24;18.40;94.90
5683;DHT22;2864;49.220;8.654;2023-06-26T01:00:51;18.20;95.00
5683;DHT22;2864;49.220;8.654;2023-06-26T01:03:17;18.10;95.20
5683;DHT22;2864;49.220;8.654;2023-06-26T01:05:42;18.00;95.80
5683;DHT22;2864;49.220;8.654;2023-06-26T01:08:12;17.80;95.90
5683;DHT22;2864;49.220;8.654;2023-06-26T01:10:38;17.70;96.10
5683;DHT22;2864;49.220;8.654;2023-06-26T01:13:04;17.60;96.50
5683;DHT22;2864;49.220;8.654;2023-06-26T01:15:30;17.50;97.00
5683;DHT22;2864;49.220;8.654;2023-06-26T01:17:57;17.40;97.50
5683;DHT22;2864;49.220;8.654;2023-06-26T01:20:25;17.30;98.00
5683;DHT22;2864;49.220;8.654;2023-06-26T01:28:17;17.30;99.20
5683;DHT22;2864;49.220;8.654;2023-06-26T01:30:44;17.20;99.20
5683;DHT22;2864;49.220;8.654;2023-06-26T01:33:11;17.20;99.80
5683;DHT22;2864;49.220;8.654;2023-06-26T01:35:38;17.10;99.90
5683;DHT22;2864;49.220;8.654;2023-06-26T01:38:17;17.10;99.90
5683;DHT22;2864;49.220;8.654;2023-06-26T01:40:43;17.00;99.90
5683;DHT22;2864;49.220;8.654;2023-06-26T01:43:16;17.00;99.90
5683;DHT22;2864;49.220;8.654;2023-06-26T01:45:42;17.00;99.90
5683;DHT22;2864;49.220;8.654;2023-06-26T01:48:11;16.90;99.90
5683;DHT22;2864;49.220;8.654;2023-06-26T01:50:39;16.80;99.90
5683;DHT22;2864;49.220;8.654;2023-06-26T01:53:11;16.80;99.90
5683;DHT22;2864;49.220;8.654;2023-06-26T01:55:51;16.80;99.90
5683;DHT22;2864;49.220;8.654;2023-06-26T01:58:20;16.70;99.90
5683;DHT22;2864;49.220;8.654;2023-06-26T02:00:47;16.70;99.90
5683;DHT22;2864;49.220;8.654;2023-06-26T02:03:13;16.60;99.90
5683;DHT22;2864;49.220;8.654;2023-06-26T02:05:39;16.60;99.90
5683;DHT22;2864;49.220;8.654;2023-06-26T02:08:04;16.50;99.90
5683;DHT22;2864;49.220;8.654;2023-06-26T02:10:30;16.50;99.90
5683;DHT22;2864;49.220;8.654;2023-06-26T02:12:56;16.50;99.90
5683;DHT22;2864;49.220;8.654;2023-06-26T02:15:21;16.40;99.90
5683;DHT22;2864;49.220;8.654;2023-06-26T02:17:47;17.10;99.90
5683;DHT22;2864;49.220;8.654;2023-06-26T02:20:14;16.40;99.90
5683;DHT22;2864;49.220;8.654;2023-06-26T02:22:39;16.30;99.90
5683;DHT22;2864;49.220;8.654;2023-06-26T02:25:05;16.30;99.90
5683;DHT22;2864;49.220;8.654;2023-06-26T02:27:31;16.30;99.90
5683;DHT22;2864;49.220;8.654;2023-06-26T02:29:56;16.30;99.90
5683;DHT22;2864;49.220;8.654;2023-06-26T02:32:22;16.30;99.90
5683;DHT22;2864;49.220;8.654;2023-06-26T02:34:47;16.20;99.90
5683;DHT22;2864;49.220;8.654;2023-06-26T02:37:13;16.20;99.90
5683;DHT22;2864;49.220;8.654;2023-06-26T02:39:39;16.10;99.90
5683;DHT22;2864;49.220;8.654;2023-06-26T02:42:05;16.10;99.90
5683;DHT22;2864;49.220;8.654;2023-06-26T02:44:30;16.10;99.90
5683;DHT22;2864;49.220;8.654;2023-06-26T02:46:56;16.10;99.90
5683;DHT22;2864;49.220;8.654;2023-06-26T02:49:21;16.00;99.90
5683;DHT22;2864;49.220;8.654;2023-06-26T02:51:47;16.00;99.90
5683;DHT22;2864;49.220;8.654;2023-06-26T02:54:12;16.00;99.90
5683;DHT22;2864;49.220;8.654;2023-06-26T02:56:38;16.00;99.90
5683;DHT22;2864;49.220;8.654;2023-06-26T02:59:03;16.00;99.90
5683;DHT22;2864;49.220;8.654;2023-06-26T03:04:51;16.10;99.90
5683;DHT22;2864;49.220;8.654;2023-06-26T03:07:18;16.00;99.90
5683;DHT22;2864;49.220;8.654;2023-06-26T03:09:43;16.10;99.90
5683;DHT22;2864;49.220;8.654;2023-06-26T03:12:09;16.00;99.90
5683;DHT22;2864;49.220;8.654;2023-06-26T03:14:34;16.00;99.90
5683;DHT22;2864;49.220;8.654;2023-06-26T03:17:00;15.90;99.90
5683;DHT22;2864;49.220;8.654;2023-06-26T03:19:29;15.90;99.90
5683;DHT22;2864;49.220;8.654;2023-06-26T03:21:54;15.90;99.90
5683;DHT22;2864;49.220;8.654;2023-06-26T03:24:20;15.90;99.90
5683;DHT22;2864;49.220;8.654;2023-06-26T03:26:46;15.90;99.90
5683;DHT22;2864;49.220;8.654;2023-06-26T03:29:11;15.90;99.90
5683;DHT22;2864;49.220;8.654;2023-06-26T03:31:37;15.90;99.90
5683;DHT22;2864;49.220;8.654;2023-06-26T03:34:02;15.80;99.90
5683;DHT22;2864;49.220;8.654;2023-06-26T03:36:28;15.80;99.90
5683;DHT22;2864;49.220;8.654;2023-06-26T03:38:53;16.40;99.90
5683;DHT22;2864;49.220;8.654;2023-06-26T03:41:22;15.80;99.90
5683;DHT22;2864;49.220;8.654;2023-06-26T03:43:48;15.90;99.90
5683;DHT22;2864;49.220;8.654;2023-06-26T03:46:14;15.80;99.90
5683;DHT22;2864;49.220;8.654;2023-06-26T03:48:40;15.90;99.90
5683;DHT22;2864;49.220;8.654;2023-06-26T03:51:05;15.90;99.90
5683;DHT22;2864;49.220;8.654;2023-06-26T03:53:32;16.00;99.90
5683;DHT22;2864;49.220;8.654;2023-06-26T03:55:58;16.10;99.90
5683;DHT22;2864;49.220;8.654;2023-06-26T03:58:23;16.10;99.90
5683;DHT22;2864;49.220;8.654;2023-06-26T04:00:50;16.20;99.90
5683;DHT22;2864;49.220;8.654;2023-06-26T04:03:16;16.30;99.90
5683;DHT22;2864;49.220;8.654;2023-06-26T04:05:41;16.30;99.90
5683;DHT22;2864;49.220;8.654;2023-06-26T04:08:07;16.40;99.90
5683;DHT22;2864;49.220;8.654;2023-06-26T04:10:32;16.40;99.90
5683;DHT22;2864;49.220;8.654;2023-06-26T04:12:58;16.50;99.90
5683;DHT22;2864;49.220;8.654;2023-06-26T04:15:23;16.80;99.90
5683;DHT22;2864;49.220;8.654;2023-06-26T04:17:49;16.60;99.90
5683;DHT22;2864;49.220;8.654;2023-06-26T04:20:15;16.70;99.90
5683;DHT22;2864;49.220;8.654;2023-06-26T04:22:40;16.80;99.90
5683;DHT22;2864;49.220;8.654;2023-06-26T04:25:06;16.80;99.90
5683;DHT22;2864;49.220;8.654;2023-06-26T04:27:31;16.90;99.90
5683;DHT22;2864;49.220;8.654;2023-06-26T04:29:57;16.90;99.90
5683;DHT22;2864;49.220;8.654;2023-06-26T04:32:22;17.00;99.90
5683;DHT22;2864;49.220;8.654;2023-06-26T04:34:48;17.10;99.90
5683;DHT22;2864;49.220;8.654;2023-06-26T04:37:14;17.60;99.90
5683;DHT22;2864;49.220;8.654;2023-06-26T04:39:42;17.30;99.90
5683;DHT22;2864;49.220;8.654;2023-06-26T04:42:08;17.40;99.90
5683;DHT22;2864;49.220;8.654;2023-06-26T04:44:34;17.50;99.90
5683;DHT22;2864;49.220;8.654;2023-06-26T04:47:00;17.60;99.90
5683;DHT22;2864;49.220;8.654;2023-06-26T04:49:25;19.30;99.90
5683;DHT22;2864;49.220;8.654;2023-06-26T04:51:53;17.90;99.90
5683;DHT22;2864;49.220;8.654;2023-06-26T04:54:18;18.00;99.90
5683;DHT22;2864;49.220;8.654;2023-06-26T04:56:44;18.10;99.90
5683;DHT22;2864;49.220;8.654;2023-06-26T04:59:12;18.20;99.90
5683;DHT22;2864;49.220;8.654;2023-06-26T05:01:40;18.30;99.90
5683;DHT22;2864;49.220;8.654;2023-06-26T05:04:06;18.50;99.90
5683;DHT22;2864;49.220;8.654;2023-06-26T05:06:32;18.50;99.90
5683;DHT22;2864;49.220;8.654;2023-06-26T05:08:57;18.80;99.90
5683;DHT22;2864;49.220;8.654;2023-06-26T05:11:23;18.90;99.90
5683;DHT22;2864;49.220;8.654;2023-06-26T05:13:49;19.00;99.90
5683;DHT22;2864;49.220;8.654;2023-06-26T05:16:15;19.40;99.90
5683;DHT22;2864;49.220;8.654;2023-06-26T05:18:40;19.40;99.90
5683;DHT22;2864;49.220;8.654;2023-06-26T05:21:07;19.50;99.90
5683;DHT22;2864;49.220;8.654;2023-06-26T05:23:33;19.70;99.90
5683;DHT22;2864;49.220;8.654;2023-06-26T05:26:00;19.90;99.90
5683;DHT22;2864;49.220;8.654;2023-06-26T05:28:26;20.10;99.90
5683;DHT22;2864;49.220;8.654;2023-06-26T05:30:53;20.30;99.00
5683;DHT22;2864;49.220;8.654;2023-06-26T05:33:19;20.50;97.10
5683;DHT22;2864;49.220;8.654;2023-06-26T05:35:48;20.80;96.40
5683;DHT22;2864;49.220;8.654;2023-06-26T05:38:14;21.00;94.80
5683;DHT22;2864;49.220;8.654;2023-06-26T05:40:40;21.10;94.30
5683;DHT22;2864;49.220;8.654;2023-06-26T05:43:06;21.20;93.00
5683;DHT22;2864;49.220;8.654;2023-06-26T05:45:32;21.30;92.80
5683;DHT22;2864;49.220;8.654;2023-06-26T05:47:58;21.50;92.50
5683;DHT22;2864;49.220;8.654;2023-06-26T05:50:24;21.60;91.70
5683;DHT22;2864;49.220;8.654;2023-06-26T05:52:50;21.70;91.60
5683;DHT22;2864;49.220;8.654;2023-06-26T05:55:16;21.70;91.50
5683;DHT22;2864;49.220;8.654;2023-06-26T05:57:42;21.80;91.50
5683;DHT22;2864;49.220;8.654;2023-06-26T06:00:08;21.90;91.30
5683;DHT22;2864;49.220;8.654;2023-06-26T06:02:38;22.00;91.20
5683;DHT22;2864;49.220;8.654;2023-06-26T06:05:04;21.90;91.10
5683;DHT22;2864;49.220;8.654;2023-06-26T06:07:32;22.00;91.30
5683;DHT22;2864;49.220;8.654;2023-06-26T06:09:58;22.10;90.90
5683;DHT22;2864;49.220;8.654;2023-06-26T06:12:24;22.20;90.80
5683;DHT22;2864;49.220;8.654;2023-06-26T06:14:49;22.30;90.70
5683;DHT22;2864;49.220;8.654;2023-06-26T06:17:15;22.40;90.40
5683;DHT22;2864;49.220;8.654;2023-06-26T06:19:40;22.60;90.40
5683;DHT22;2864;49.220;8.654;2023-06-26T06:22:06;22.70;90.10
5683;DHT22;2864;49.220;8.654;2023-06-26T06:24:31;22.90;90.00
5683;DHT22;2864;49.220;8.654;2023-06-26T06:26:57;22.90;90.00
5683;DHT22;2864;49.220;8.654;2023-06-26T06:29:22;23.40;90.10
5683;DHT22;2864;49.220;8.654;2023-06-26T06:31:48;23.20;89.20
5683;DHT22;2864;49.220;8.654;2023-06-26T06:34:13;23.30;88.70
5683;DHT22;2864;49.220;8.654;2023-06-26T06:36:39;24.40;89.00
5683;DHT22;2864;49.220;8.654;2023-06-26T06:39:05;23.60;87.10
5683;DHT22;2864;49.220;8.654;2023-06-26T06:41:30;23.60;86.40
5683;DHT22;2864;49.220;8.654;2023-06-26T06:43:56;23.60;85.90
5683;DHT22;2864;49.220;8.654;2023-06-26T06:46:21;23.70;86.00
5683;DHT22;2864;49.220;8.654;2023-06-26T06:48:47;23.70;85.70
5683;DHT22;2864;49.220;8.654;2023-06-26T06:51:13;23.70;85.20
5683;DHT22;2864;49.220;8.654;2023-06-26T06:53:38;23.80;84.80
5683;DHT22;2864;49.220;8.654;2023-06-26T06:56:04;24.00;85.30
5683;DHT22;2864;49.220;8.654;2023-06-26T06:58:29;24.20;84.70
5683;DHT22;2864;49.220;8.654;2023-06-26T07:00:59;24.30;84.70
5683;DHT22;2864;49.220;8.654;2023-06-26T07:03:24;24.50;84.00
5683;DHT22;2864;49.220;8.654;2023-06-26T07:05:50;24.80;83.90
5683;DHT22;2864;49.220;8.654;2023-06-26T07:08:16;25.00;83.30
5683;DHT22;2864;49.220;8.654;2023-06-26T07:10:41;25.00;81.50
5683;DHT22;2864;49.220;8.654;2023-06-26T07:13:07;24.90;80.70
5683;DHT22;2864;49.220;8.654;2023-06-26T07:15:32;25.10;80.40
5683;DHT22;2864;49.220;8.654;2023-06-26T07:17:58;25.30;79.70
5683;DHT22;2864;49.220;8.654;2023-06-26T07:20:24;25.40;78.70
5683;DHT22;2864;49.220;8.654;2023-06-26T07:22:50;25.50;78.70
5683;DHT22;2864;49.220;8.654;2023-06-26T07:25:15;25.50;77.80
5683;DHT22;2864;49.220;8.654;2023-06-26T07:27:41;25.60;77.90
5683;DHT22;2864;49.220;8.654;2023-06-26T07:30:08;25.70;77.50
5683;DHT22;2864;49.220;8.654;2023-06-26T07:32:37;25.80;77.00
5683;DHT22;2864;49.220;8.654;2023-06-26T07:35:04;25.90;76.30
5683;DHT22;2864;49.220;8.654;2023-06-26T07:37:29;26.00;75.60
5683;DHT22;2864;49.220;8.654;2023-06-26T07:39:55;26.00;75.80
5683;DHT22;2864;49.220;8.654;2023-06-26T07:42:20;26.10;75.00
5683;DHT22;2864;49.220;8.654;2023-06-26T07:44:46;26.30;74.60
5683;DHT22;2864;49.220;8.654;2023-06-26T07:47:12;26.50;73.80
5683;DHT22;2864;49.220;8.654;2023-06-26T07:49:38;26.70;73.50
5683;DHT22;2864;49.220;8.654;2023-06-26T07:52:04;26.60;73.60
5683;DHT22;2864;49.220;8.654;2023-06-26T07:54:30;26.80;71.90
5683;DHT22;2864;49.220;8.654;2023-06-26T07:57:00;26.70;71.70
5683;DHT22;2864;49.220;8.654;2023-06-26T07:59:27;26.80;70.80
5683;DHT22;2864;49.220;8.654;2023-06-26T08:01:54;26.90;71.20
5683;DHT22;2864;49.220;8.654;2023-06-26T08:04:21;27.00;70.40
5683;DHT22;2864;49.220;8.654;2023-06-26T08:06:52;27.20;70.40
5683;DHT22;2864;49.220;8.654;2023-06-26T08:09:19;27.40;70.80
5683;DHT22;2864;49.220;8.654;2023-06-26T08:11:45;27.50;70.30
5683;DHT22;2864;49.220;8.654;2023-06-26T08:14:11;27.80;69.70
5683;DHT22;2864;49.220;8.654;2023-06-26T08:16:40;27.80;69.50
5683;DHT22;2864;49.220;8.654;2023-06-26T08:19:06;27.80;69.50
5683;DHT22;2864;49.220;8.654;2023-06-26T08:21:32;28.20;69.50
5683;DHT22;2864;49.220;8.654;2023-06-26T08:23:57;28.10;68.50
5683;DHT22;2864;49.220;8.654;2023-06-26T08:26:23;28.70;67.90
5683;DHT22;2864;49.220;8.654;2023-06-26T08:28:48;28.60;67.00
5683;DHT22;2864;49.220;8.654;2023-06-26T08:31:14;29.10;67.30
5683;DHT22;2864;49.220;8.654;2023-06-26T08:33:40;28.80;66.80
5683;DHT22;2864;49.220;8.654;2023-06-26T08:36:05;28.60;66.80
5683;DHT22;2864;49.220;8.654;2023-06-26T08:38:31;28.70;67.20
5683;DHT22;2864;49.220;8.654;2023-06-26T08:40:56;29.80;68.10
5683;DHT22;2864;49.220;8.654;2023-06-26T08:43:22;28.40;67.80
5683;DHT22;2864;49.220;8.654;2023-06-26T08:45:48;28.30;67.60
5683;DHT22;2864;49.220;8.654;2023-06-26T08:48:17;28.50;68.00
5683;DHT22;2864;49.220;8.654;2023-06-26T08:50:44;28.80;67.60
5683;DHT22;2864;49.220;8.654;2023-06-26T08:53:38;29.00;67.20
5683;DHT22;2864;49.220;8.654;2023-06-26T08:56:07;28.90;67.70
5683;DHT22;2864;49.220;8.654;2023-06-26T08:58:35;28.70;68.20
5683;DHT22;2864;49.220;8.654;2023-06-26T09:01:02;28.80;68.50
5683;DHT22;2864;49.220;8.654;2023-06-26T09:03:29;28.60;68.40
5683;DHT22;2864;49.220;8.654;2023-06-26T09:05:55;28.30;69.00
5683;DHT22;2864;49.220;8.654;2023-06-26T09:08:21;29.50;70.60
5683;DHT22;2864;49.220;8.654;2023-06-26T09:10:47;28.60;69.70
5683;DHT22;2864;49.220;8.654;2023-06-26T09:13:12;28.40;69.50
5683;DHT22;2864;49.220;8.654;2023-06-26T09:15:42;28.50;69.00
5683;DHT22;2864;49.220;8.654;2023-06-26T09:18:07;28.70;69.20
5683;DHT22;2864;49.220;8.654;2023-06-26T09:20:33;29.30;68.60
5683;DHT22;2864;49.220;8.654;2023-06-26T09:22:59;29.20;68.70
5683;DHT22;2864;49.220;8.654;2023-06-26T09:25:25;30.00;69.50
5683;DHT22;2864;49.220;8.654;2023-06-26T09:27:52;29.80;69.30
5683;DHT22;2864;49.220;8.654;2023-06-26T09:30:18;29.30;68.50
5683;DHT22;2864;49.220;8.654;2023-06-26T09:32:44;29.00;68.60
5683;DHT22;2864;49.220;8.654;2023-06-26T09:35:10;29.20;68.50
5683;DHT22;2864;49.220;8.654;2023-06-26T09:37:35;29.10;68.10
5683;DHT22;2864;49.220;8.654;2023-06-26T09:40:01;29.20;68.40
5683;DHT22;2864;49.220;8.654;2023-06-26T09:42:29;29.00;68.00
5683;DHT22;2864;49.220;8.654;2023-06-26T09:44:54;30.10;69.50
5683;DHT22;2864;49.220;8.654;2023-06-26T09:47:21;28.60;68.80
5683;DHT22;2864;49.220;8.654;2023-06-26T09:49:46;28.60;69.70
5683;DHT22;2864;49.220;8.654;2023-06-26T09:52:15;28.80;69.60
5683;DHT22;2864;49.220;8.654;2023-06-26T09:54:43;28.80;69.50
5683;DHT22;2864;49.220;8.654;2023-06-26T09:57:15;29.10;68.50
5683;DHT22;2864;49.220;8.654;2023-06-26T09:59:41;29.00;68.70
5683;DHT22;2864;49.220;8.654;2023-06-26T10:02:08;29.10;68.20
5683;DHT22;2864;49.220;8.654;2023-06-26T10:04:35;28.90;68.50
5683;DHT22;2864;49.220;8.654;2023-06-26T10:07:02;28.70;68.60
5683;DHT22;2864;49.220;8.654;2023-06-26T10:09:30;28.50;69.10
5683;DHT22;2864;49.220;8.654;2023-06-26T10:12:01;28.30;69.70
5683;DHT22;2864;49.220;8.654;2023-06-26T10:14:31;28.20;70.00
5683;DHT22;2864;49.220;8.654;2023-06-26T10:17:00;28.00;70.90
5683;DHT22;2864;49.220;8.654;2023-06-26T10:19:27;27.80;71.30
5683;DHT22;2864;49.220;8.654;2023-06-26T10:21:54;27.90;71.30
5683;DHT22;2864;49.220;8.654;2023-06-26T10:24:23;28.10;71.00
5683;DHT22;2864;49.220;8.654;2023-06-26T10:26:52;30.40;72.10
5683;DHT22;2864;49.220;8.654;2023-06-26T10:29:19;28.70;70.20
5683;DHT22;2864;49.220;8.654;2023-06-26T10:31:50;28.80;69.60
5683;DHT22;2864;49.220;8.654;2023-06-26T10:34:17;28.90;68.50
5683;DHT22;2864;49.220;8.654;2023-06-26T10:36:42;29.00;68.50
5683;DHT22;2864;49.220;8.654;2023-06-26T10:39:09;29.30;68.60
5683;DHT22;2864;49.220;8.654;2023-06-26T10:41:41;29.40;68.90
5683;DHT22;2864;49.220;8.654;2023-06-26T10:44:10;29.30;68.40
5683;DHT22;2864;49.220;8.654;2023-06-26T10:46:49;29.60;69.00
5683;DHT22;2864;49.220;8.654;2023-06-26T10:49:15;30.60;68.40
5683;DHT22;2864;49.220;8.654;2023-06-26T10:51:48;30.30;67.40
5683;DHT22;2864;49.220;8.654;2023-06-26T10:54:17;30.60;66.40
5683;DHT22;2864;49.220;8.654;2023-06-26T10:56:48;30.30;66.30
5683;DHT22;2864;49.220;8.654;2023-06-26T11:01:45;30.80;67.00
5683;DHT22;2864;49.220;8.654;2023-06-26T11:04:12;30.80;66.00
5683;DHT22;2864;49.220;8.654;2023-06-26T11:06:39;30.70;65.80
5683;DHT22;2864;49.220;8.654;2023-06-26T11:14:19;30.10;66.60
5683;DHT22;2864;49.220;8.654;2023-06-26T11:16:46;30.00;65.90
5683;DHT22;2864;49.220;8.654;2023-06-26T11:19:13;29.90;66.30
5683;DHT22;2864;49.220;8.654;2023-06-26T11:21:38;29.70;66.70
5683;DHT22;2864;49.220;8.654;2023-06-26T11:24:06;30.10;67.80
5683;DHT22;2864;49.220;8.654;2023-06-26T11:26:38;29.60;66.80
5683;DHT22;2864;49.220;8.654;2023-06-26T11:29:04;30.40;67.30
5683;DHT22;2864;49.220;8.654;2023-06-26T11:31:31;29.60;66.10
5683;DHT22;2864;49.220;8.654;2023-06-26T11:34:06;30.00;66.00
5683;DHT22;2864;49.220;8.654;2023-06-26T11:36:33;30.40;64.90
5683;DHT22;2864;49.220;8.654;2023-06-26T11:39:03;30.80;64.70
5683;DHT22;2864;49.220;8.654;2023-06-26T11:41:31;30.80;64.50
5683;DHT22;2864;49.220;8.654;2023-06-26T11:44:07;31.90;65.20
5683;DHT22;2864;49.220;8.654;2023-06-26T11:46:34;30.40;64.30
5683;DHT22;2864;49.220;8.654;2023-06-26T11:49:02;30.60;63.40
5683;DHT22;2864;49.220;8.654;2023-06-26T11:51:28;30.60;62.60
5683;DHT22;2864;49.220;8.654;2023-06-26T11:53:54;30.40;62.40
5683;DHT22;2864;49.220;8.654;2023-06-26T11:56:19;30.50;62.40
5683;DHT22;2864;49.220;8.654;2023-06-26T11:59:05;30.60;63.10
5683;DHT22;2864;49.220;8.654;2023-06-26T12:01:34;31.00;62.10
5683;DHT22;2864;49.220;8.654;2023-06-26T12:04:02;31.20;61.00
5683;DHT22;2864;49.220;8.654;2023-06-26T12:06:37;31.00;61.50
5683;DHT22;2864;49.220;8.654;2023-06-26T12:09:05;31.50;60.80
5683;DHT22;2864;49.220;8.654;2023-06-26T12:11:34;31.90;60.10
5683;DHT22;2864;49.220;8.654;2023-06-26T12:14:00;31.40;60.00
5683;DHT22;2864;49.220;8.654;2023-06-26T12:16:28;31.20;60.10
5683;DHT22;2864;49.220;8.654;2023-06-26T12:19:05;31.50;60.20
5683;DHT22;2864;49.220;8.654;2023-06-26T12:24:03;30.80;59.40
5683;DHT22;2864;49.220;8.654;2023-06-26T12:26:29;31.00;59.10
5683;DHT22;2864;49.220;8.654;2023-06-26T12:29:12;31.00;58.60
5683;DHT22;2864;49.220;8.654;2023-06-26T12:31:46;31.30;58.10
5683;DHT22;2864;49.220;8.654;2023-06-26T12:34:14;31.10;58.00
5683;DHT22;2864;49.220;8.654;2023-06-26T12:36:44;31.00;57.90
5683;DHT22;2864;49.220;8.654;2023-06-26T12:39:11;31.60;57.60
5683;DHT22;2864;49.220;8.654;2023-06-26T12:41:52;31.50;56.90
5683;DHT22;2864;49.220;8.654;2023-06-26T12:44:20;31.50;56.50
5683;DHT22;2864;49.220;8.654;2023-06-26T12:46:47;31.20;56.60
5683;DHT22;2864;49.220;8.654;2023-06-26T12:49:13;31.30;56.70
5683;DHT22;2864;49.220;8.654;2023-06-26T12:51:39;32.30;56.00
5683;DHT22;2864;49.220;8.654;2023-06-26T12:54:05;32.10;55.80
5683;DHT22;2864;49.220;8.654;2023-06-26T12:56:31;32.40;55.40
5683;DHT22;2864;49.220;8.654;2023-06-26T12:58:56;33.00;55.30
5683;DHT22;2864;49.220;8.654;2023-06-26T13:01:22;32.60;54.70
5683;DHT22;2864;49.220;8.654;2023-06-26T13:03:50;33.00;54.30
5683;DHT22;2864;49.220;8.654;2023-06-26T13:06:16;32.80;54.80
5683;DHT22;2864;49.220;8.654;2023-06-26T13:08:42;33.40;54.30
5683;DHT22;2864;49.220;8.654;2023-06-26T13:11:08;33.20;54.40
5683;DHT22;2864;49.220;8.654;2023-06-26T13:13:34;32.70;54.50
5683;DHT22;2864;49.220;8.654;2023-06-26T13:16:00;32.50;54.80
5683;DHT22;2864;49.220;8.654;2023-06-26T13:18:25;32.50;54.50
5683;DHT22;2864;49.220;8.654;2023-06-26T13:20:51;33.70;53.90
5683;DHT22;2864;49.220;8.654;2023-06-26T13:23:16;33.30;53.90
5683;DHT22;2864;49.220;8.654;2023-06-26T13:25:43;33.70;53.30
5683;DHT22;2864;49.220;8.654;2023-06-26T13:28:09;34.20;53.00
5683;DHT22;2864;49.220;8.654;2023-06-26T13:30:35;33.90;53.10
5683;DHT22;2864;49.220;8.654;2023-06-26T13:33:00;34.50;52.90
5683;DHT22;2864;49.220;8.654;2023-06-26T13:35:26;32.00;51.90
5683;DHT22;2864;49.220;8.654;2023-06-26T13:37:52;33.70;52.90
5683;DHT22;2864;49.220;8.654;2023-06-26T13:40:17;33.50;52.70
5683;DHT22;2864;49.220;8.654;2023-06-26T13:42:43;34.40;52.20
5683;DHT22;2864;49.220;8.654;2023-06-26T13:45:09;34.10;51.80
5683;DHT22;2864;49.220;8.654;2023-06-26T13:47:35;34.50;52.00
5683;DHT22;2864;49.220;8.654;2023-06-26T13:50:03;35.20;51.60
5683;DHT22;2864;49.220;8.654;2023-06-26T13:52:29;34.40;51.70
5683;DHT22;2864;49.220;8.654;2023-06-26T13:54:55;34.50;52.00
5683;DHT22;2864;49.220;8.654;2023-06-26T13:57:21;33.80;52.10
5683;DHT22;2864;49.220;8.654;2023-06-26T13:59:47;34.00;52.10
5683;DHT22;2864;49.220;8.654;2023-06-26T14:02:13;33.70;52.60
5683;DHT22;2864;49.220;8.654;2023-06-26T14:04:39;34.10;52.10
5683;DHT22;2864;49.220;8.654;2023-06-26T14:07:05;34.30;52.00
5683;DHT22;2864;49.220;8.654;2023-06-26T14:09:31;34.50;52.10
5683;DHT22;2864;49.220;8.654;2023-06-26T14:11:58;35.20;51.80
5683;DHT22;2864;49.220;8.654;2023-06-26T14:14:23;34.70;51.40
5683;DHT22;2864;49.220;8.654;2023-06-26T14:16:49;34.90;51.50
5683;DHT22;2864;49.220;8.654;2023-06-26T14:19:14;35.00;51.20
5683;DHT22;2864;49.220;8.654;2023-06-26T14:21:43;34.90;51.70
5683;DHT22;2864;49.220;8.654;2023-06-26T14:24:09;35.10;51.30
5683;DHT22;2864;49.220;8.654;2023-06-26T14:26:35;34.30;51.30
5683;DHT22;2864;49.220;8.654;2023-06-26T14:29:02;34.40;51.10
5683;DHT22;2864;49.220;8.654;2023-06-26T14:31:28;35.00;50.70
5683;DHT22;2864;49.220;8.654;2023-06-26T14:33:53;34.40;50.50
5683;DHT22;2864;49.220;8.654;2023-06-26T14:36:19;34.20;51.20
5683;DHT22;2864;49.220;8.654;2023-06-26T14:38:45;34.00;50.60
5683;DHT22;2864;49.220;8.654;2023-06-26T14:41:11;34.50;50.30
5683;DHT22;2864;49.220;8.654;2023-06-26T14:43:36;35.50;49.50
5683;DHT22;2864;49.220;8.654;2023-06-26T14:46:02;34.30;49.20
5683;DHT22;2864;49.220;8.654;2023-06-26T14:48:27;33.30;49.00
5683;DHT22;2864;49.220;8.654;2023-06-26T14:50:53;33.60;48.90
5683;DHT22;2864;49.220;8.654;2023-06-26T14:53:18;32.70;49.30
5683;DHT22;2864;49.220;8.654;2023-06-26T14:55:44;32.40;49.50
5683;DHT22;2864;49.220;8.654;2023-06-26T14:58:10;31.60;49.40
5683;DHT22;2864;49.220;8.654;2023-06-26T15:00:35;31.90;49.40
5683;DHT22;2864;49.220;8.654;2023-06-26T15:03:01;31.90;48.10
5683;DHT22;2864;49.220;8.654;2023-06-26T15:05:26;31.80;47.60
5683;DHT22;2864;49.220;8.654;2023-06-26T15:07:52;32.80;46.70
5683;DHT22;2864;49.220;8.654;2023-06-26T15:10:17;32.70;46.50
5683;DHT22;2864;49.220;8.654;2023-06-26T15:12:43;32.60;46.10
5683;DHT22;2864;49.220;8.654;2023-06-26T15:15:09;32.80;45.90
5683;DHT22;2864;49.220;8.654;2023-06-26T15:17:35;32.80;45.50
5683;DHT22;2864;49.220;8.654;2023-06-26T15:20:00;33.10;44.90
5683;DHT22;2864;49.220;8.654;2023-06-26T15:22:27;33.90;44.70
5683;DHT22;2864;49.220;8.654;2023-06-26T15:24:53;33.90;44.20
5683;DHT22;2864;49.220;8.654;2023-06-26T15:27:19;33.50;43.50
5683;DHT22;2864;49.220;8.654;2023-06-26T15:29:44;32.20;43.50
5683;DHT22;2864;49.220;8.654;2023-06-26T15:32:11;32.90;43.40
5683;DHT22;2864;49.220;8.654;2023-06-26T15:34:37;33.60;43.00
5683;DHT22;2864;49.220;8.654;2023-06-26T15:37:03;33.60;42.40
5683;DHT22;2864;49.220;8.654;2023-06-26T15:39:29;33.30;42.20
5683;DHT22;2864;49.220;8.654;2023-06-26T15:41:54;33.60;42.40
5683;DHT22;2864;49.220;8.654;2023-06-26T15:44:20;33.20;42.10
5683;DHT22;2864;49.220;8.654;2023-06-26T15:46:45;32.00;42.30
5683;DHT22;2864;49.220;8.654;2023-06-26T15:49:11;32.80;43.70
5683;DHT22;2864;49.220;8.654;2023-06-26T15:51:36;31.30;43.60
5683;DHT22;2864;49.220;8.654;2023-06-26T15:54:04;31.20;43.90
5683;DHT22;2864;49.220;8.654;2023-06-26T15:56:29;31.10;44.20
5683;DHT22;2864;49.220;8.654;2023-06-26T15:58:55;31.20;44.20
5683;DHT22;2864;49.220;8.654;2023-06-26T16:01:21;31.60;44.30
5683;DHT22;2864;49.220;8.654;2023-06-26T16:03:47;31.20;45.00
5683;DHT22;2864;49.220;8.654;2023-06-26T16:06:13;31.70;44.30
5683;DHT22;2864;49.220;8.654;2023-06-26T16:08:39;31.70;44.60
5683;DHT22;2864;49.220;8.654;2023-06-26T16:11:06;32.10;44.50
5683;DHT22;2864;49.220;8.654;2023-06-26T16:13:32;32.50;44.00
5683;DHT22;2864;49.220;8.654;2023-06-26T16:15:58;31.70;43.90
5683;DHT22;2864;49.220;8.654;2023-06-26T16:18:24;31.50;44.30